Latest Coastal Weather Observations for Coolangatta (QLD)

IDN60701

Issued at 7:11 am EDT Thursday 19 January 2017 (issued every 10 minutes, with the page automatically refreshed every 10 minutes)

About coastal observations | Map of coastal stations | Coastal observations for NSW | Marine services | Other Formats
Station Details ID: 040717 Name: COOLANGATTA Lat: -28.17 Lon: 153.51 Height: 4.0 m
Data from the previous 72 hours. | See also: Recent months at Coolangatta (QLD)
Date/Time
EDT
Temp
°C
Wind Pressure Rain since
9am
mm
Weather Cloud Vis
km
Sea
Height
m
Swell
Dir  Spd
kts
Gust
kts
hPa Trend Height
m
Period
s
Dir
19/07:00am 26.4 S 14 19 1010.2 - 0.0 - Cloudy 10 - - - -
19/06:30am 26.3 S 13 18 1009.8 - 0.0 - Partly cloudy 10 - - - -
19/06:01am 26.4 S 15 25 1009.3 - 0.0 - Partly cloudy 10 - - - -
19/06:00am 26.5 S 15 24 1009.3 - 0.0 - Partly cloudy 10 - - - -
19/05:30am 26.5 SSW 14 22 1008.7 - 0.0 - Partly cloudy 10 - - - -
19/05:00am 26.6 S 13 21 1008.2 - 0.0 - - 10 - - - -
19/04:30am 26.8 S 14 20 1007.7 - 0.0 - Partly cloudy 10 - - - -
19/04:12am 26.9 S 15 27 1007.7 - 0.0 - Partly cloudy 10 - - - -
19/04:00am 26.9 S 13 19 1007.6 - 0.0 - Partly cloudy 10 - - - -
19/03:30am 26.7 S 11 18 1007.6 - 0.0 - - 10 - - - -
19/03:00am 26.8 S 11 16 1007.7 - 0.0 - - 10 - - - -
19/02:30am 26.9 SSE 12 17 1007.9 - 0.0 - - 10 - - - -
19/02:00am 27.2 SSE 9 16 1008.2 - 0.0 - Partly cloudy 10 - - - -
19/01:30am 25.6 N 9 11 1006.7 - 0.0 - - 8 - - - -
19/01:00am 26.3 NNW 8 11 1007.1 - 0.0 - - 10 - - - -
19/12:30am 25.9 NNW 9 12 1007.5 - 0.0 - - 10 - - - -
19/12:00am 26.2 NNW 8 12 1007.8 - 0.0 - - 10 - - - -
 
Date/Time
EDT
Temp
°C
Wind Pressure Rain since
9am
mm
Weather Cloud Vis
km
Sea
Height
m
Swell
Dir  Spd
kts
Gust
kts
hPa Trend Height
m
Period
s
Dir
18/11:30pm 26.5 N 10 13 1008.1 - 0.0 - - 10 - - - -
18/11:00pm 26.7 N 8 9 1008.3 - 0.0 - - 9 - - - -
18/10:30pm 28.2 NNW 7 10 1008.4 - 0.0 - - 10 - - - -
18/10:00pm 28.2 N 9 11 1008.2 - 0.0 - - 10 - - - -
18/09:30pm 28.2 N 9 14 1008.2 - 0.0 - - 10 - - - -
18/09:00pm 27.6 N 9 12 1008.0 - 0.0 - - 10 - - - -
18/08:30pm 26.1 N 13 15 1007.6 - 0.0 - - 10 - - - -
18/08:00pm 26.1 NNW 11 14 1007.2 - 0.0 - - 10 - - - -
18/07:30pm 26.3 N 14 18 1007.0 - 0.0 - - 10 - - - -
18/07:00pm 26.6 N 15 19 1006.9 - 0.0 - - 10 - - - -
18/06:30pm 27.2 N 15 20 1006.8 - 0.0 - - 10 - - - -
18/06:00pm 27.7 N 14 18 1006.6 - 0.0 - - 10 - - - -
18/05:30pm 28.1 N 16 20 1006.7 - 0.0 - - 10 - - - -
18/05:00pm 28.7 N 16 20 1006.8 - 0.0 - - 10 - - - -
18/04:30pm 28.7 N 16 20 1007.1 - 0.0 - - 10 - - - -
18/04:00pm 29.1 N 18 23 1007.5 - 0.0 - - 10 - - - -
18/03:30pm 29.0 N 18 23 1007.8 - 0.0 - - 10 - - - -
18/03:00pm 29.6 N 18 22 1008.4 - 0.0 - - 10 - - - -
18/02:30pm 28.9 N 18 23 1008.7 - 0.0 - - 10 - - - -
18/02:00pm 29.1 N 18 23 1009.2 - 0.0 - - 10 - - - -
18/01:30pm 29.4 N 19 24 1009.6 - 0.0 - - 10 - - - -
18/01:00pm 29.2 N 18 24 1010.0 - 0.0 - Mostly clear 10 - - - -
18/12:30pm 28.2 N 18 23 1010.5 - 0.0 - - 10 - - - -
18/12:00pm 29.0 N 16 21 1010.8 - 0.0 - - 10 - - - -
18/11:30am 30.3 N 15 19 1011.2 - 0.0 - - 10 - - - -
18/11:00am 30.6 N 16 20 1011.6 - 0.0 - - 10 - - - -
18/10:30am 30.6 NW 13 19 1011.8 - 0.0 - - 10 - - - -
18/10:00am 29.7 NW 13 19 1012.0 - 0.0 - - 10 - - - -
18/09:30am 28.8 NW 14 20 1012.1 - 0.0 - - 10 - - - -
18/09:00am 28.3 NNW 12 21 1012.5 - 0.0 - - 10 - - - -
18/08:30am 27.0 NNW 11 16 1012.8 - 0.0 - - 10 - - - -
18/08:00am 26.0 NNW 12 18 1012.3 - 0.0 - - 10 - - - -
18/07:30am 25.3 NNW 9 12 1012.8 - 0.0 - - 10 - - - -
18/07:00am 24.4 NNW 9 13 1012.9 - 0.0 - Mostly clear 10 - - - -
18/06:30am 23.9 NNW 9 14 1012.8 - 0.0 - - 10 - - - -
18/06:00am 23.7 NNW 9 12 1012.5 - 0.0 - - 10 - - - -
18/05:30am 23.8 NW 9 13 1012.2 - 0.0 - - 10 - - - -
18/05:00am 23.8 NW 9 13 1012.0 - 0.0 - - 10 - - - -
18/04:30am 23.7 NW 7 11 1011.9 - 0.0 - - 10 - - - -
18/04:00am 24.0 NNW 8 10 1012.1 - 0.0 - Mostly clear 10 - - - -
18/03:30am 24.1 NNW 8 11 1012.3 - 0.0 - Partly cloudy 10 - - - -
18/03:00am 23.9 NNW 7 11 1012.6 - 0.0 - Partly cloudy 10 - - - -
18/02:30am 23.9 NW 7 9 1012.9 - 0.0 - Partly cloudy 10 - - - -
18/02:00am 23.8 NW 6 9 1013.3 - 0.0 - - 10 - - - -
18/01:30am 24.1 NNW 6 8 1013.6 - 0.0 - Partly cloudy 10 - - - -
18/01:00am 24.3 NW 5 7 1014.1 - 0.0 - Partly cloudy 10 - - - -
18/12:30am 24.6 NNW 8 11 1014.5 - 0.0 - Partly cloudy 10 - - - -
18/12:00am 24.8 NNW 10 13 1014.8 - 0.0 - - 10 - - - -
 
Date/Time
EDT
Temp
°C
Wind Pressure Rain since
9am
mm
Weather Cloud Vis
km
Sea
Height
m
Swell
Dir  Spd
kts
Gust
kts
hPa Trend Height
m
Period
s
Dir
17/11:30pm 25.0 NNW 10 15 1015.0 - 0.0 - - 10 - - - -
17/11:00pm 25.2 NNW 9 11 1015.2 - 0.0 - - 10 - - - -
17/10:30pm 25.4 NNW 9 12 1015.4 - 0.0 - - 10 - - - -
17/10:00pm 25.5 NNW 9 13 1015.5 - 0.0 - - 10 - - - -
17/09:30pm 25.3 NNW 11 13 1015.1 - 0.0 - - 10 - - - -
17/09:00pm 25.8 NNW 11 16 1015.0 - 0.0 - - 10 - - - -
17/08:30pm 25.5 NNW 9 11 1014.8 - 0.0 - Partly cloudy 10 - - - -
17/08:00pm 25.6 N 9 12 1014.5 - 0.0 - Partly cloudy 10 - - - -
17/07:30pm 26.1 N 9 11 1014.4 - 0.0 - Partly cloudy 10 - - - -
17/07:00pm 26.8 N 9 13 1014.3 - 0.0 - Mostly clear 10 - - - -
17/06:30pm 27.4 N 10 13 1014.3 - 0.0 - - 10 - - - -
17/06:00pm 28.3 N 10 13 1014.2 - 0.0 - - 10 - - - -
17/05:30pm 28.5 N 11 15 1014.0 - 0.0 - - 10 - - - -
17/05:00pm 28.5 N 13 16 1014.0 - 0.0 - - 10 - - - -
17/04:30pm 29.1 N 11 14 1014.2 - 0.0 - - 10 - - - -
17/04:00pm 29.0 N 13 16 1014.2 - 0.0 - - 10 - - - -
17/03:30pm 29.3 NNE 12 15 1014.4 - 0.0 - - 10 - - - -
17/03:00pm 28.6 NNE 11 15 1014.5 - 0.0 - - 10 - - - -
17/02:30pm 28.7 NNE 12 15 1014.8 - 0.0 - - 10 - - - -
17/02:00pm 28.9 NNE 11 13 1015.3 - 0.0 - - 10 - - - -
17/01:30pm 28.6 NNE 11 14 1015.6 - 0.0 - - 10 - - - -
17/01:00pm 29.3 NNE 11 13 1016.0 - 0.0 - - 10 - - - -
17/12:30pm 29.4 NNE 10 11 1016.3 - 0.0 - Partly cloudy 10 - - - -
17/12:00pm 29.4 N 9 11 1016.6 - 0.0 - Partly cloudy 10 - - - -
17/11:30am 28.2 NNE 10 12 1016.8 - 0.0 - Partly cloudy 10 - - - -
17/11:00am 27.3 NNE 12 15 1017.0 - 0.0 - Partly cloudy 10 - - - -
17/10:30am 26.5 NNE 10 13 1017.3 - 0.0 - Partly cloudy 10 - - - -
17/10:00am 26.4 NE 7 9 1017.2 - 0.0 - Cloudy 10 - - - -
17/09:30am 25.8 NNE 8 11 1017.2 - 0.0 - Cloudy 10 - - - -
17/09:00am 25.6 NE 10 12 1017.1 - 0.0 - Partly cloudy 10 - - - -
17/08:30am 26.2 WSW 3 5 1017.0 - 0.0 - Partly cloudy 10 - - - -
17/08:00am 24.4 WSW 5 6 1016.8 - 0.0 - Partly cloudy 10 - - - -
17/07:30am 23.4 SW 3 4 1016.7 - 0.0 - Cloudy 10 - - - -
17/07:00am 22.7 SW 1 4 1016.5 - 0.0 - Mostly clear - - - - -
17/06:30am 22.5 SW 3 4 1016.1 - 0.0 - - - - - - -
17/06:00am 22.3 SSW 3 4 1015.8 - 0.0 - - - - - - -
17/05:30am 22.3 CALM 0 0 1015.6 - 0.0 - - 10 - - - -
17/05:00am 22.6 CALM 0 0 1015.4 - 0.0 - - 10 - - - -
17/04:30am 22.6 WSW 3 5 1015.1 - 0.0 - - 10 - - - -
17/04:00am 22.5 S 3 4 1015.2 - 0.0 - Mostly clear - - - - -
17/03:30am 23.0 WSW 3 4 1015.2 - 0.0 - Partly cloudy 10 - - - -
17/03:00am 23.2 SW 1 3 1015.4 - 0.0 - Partly cloudy 10 - - - -
17/02:30am 23.2 WSW 6 7 1015.4 - 0.0 - Partly cloudy - - - - -
17/02:00am 23.1 WSW 3 5 1015.7 - 0.0 - Partly cloudy 10 - - - -
17/01:30am 23.5 WSW 5 6 1015.8 - 0.0 - Partly cloudy - - - - -
17/01:00am 23.7 WSW 5 6 1016.0 - 0.0 - Mostly cloudy - - - - -
17/12:30am 23.7 WSW 4 5 1016.2 - 0.0 - Partly cloudy 10 - - - -
17/12:00am 23.6 WSW 3 4 1016.4 - 0.0 - - 10 - - - -
 
Date/Time
EDT
Temp
°C
Wind Pressure Rain since
9am
mm
Weather Cloud Vis
km
Sea
Height
m
Swell
Dir  Spd
kts
Gust
kts
hPa Trend Height
m
Period
s
Dir
16/11:30pm 24.0 WSW 2 4 1016.5 - 0.0 - - 10 - - - -
16/11:00pm 24.6 NNE 3 5 1016.6 - 0.0 - - 10 - - - -
16/10:30pm 25.8 NNE 5 5 1016.7 - 0.0 - - 10 - - - -
16/10:00pm 25.9 NE 5 7 1016.6 - 0.0 - - 10 - - - -
16/09:30pm 26.2 NE 7 9 1016.4 - 0.0 - Partly cloudy 10 - - - -
16/09:00pm 26.5 ENE 7 10 1016.3 - 0.0 - Partly cloudy 10 - - - -
16/08:30pm 26.6 ENE 8 10 1016.2 - 0.0 - Cloudy 10 - - - -
16/08:00pm 26.6 ENE 8 10 1016.0 - 0.0 - Cloudy 10 - - - -
16/07:30pm 26.6 ENE 9 11 1015.7 - 0.0 - Partly cloudy 10 - - - -
16/07:00pm 26.7 ENE 7 10 1015.3 - 0.0 - Partly cloudy 10 - - - -
16/06:30pm 27.1 ENE 9 11 1014.8 - 0.0 - Partly cloudy 10 - - - -
16/06:00pm 27.4 ENE 9 11 1014.7 - 0.0 - Partly cloudy 10 - - - -
16/05:30pm 27.5 ENE 8 12 1014.4 - 0.0 - Partly cloudy 10 - - - -
16/05:00pm 28.1 ENE 10 13 1014.3 - 0.0 - Partly cloudy 10 - - - -
16/04:30pm 28.4 ESE 9 14 1014.2 - 0.0 - Partly cloudy 10 - - - -
16/04:00pm 29.3 E 11 15 1014.2 - 0.0 - Mostly clear 10 - - - -
16/03:30pm 29.6 ENE 10 14 1014.1 - 0.0 - - 10 - - - -
16/03:00pm 29.1 ENE 9 13 1014.3 - 0.0 - - 10 - - - -
16/02:30pm 29.4 ENE 10 13 1014.4 - 0.0 - - 10 - - - -
16/02:00pm 29.2 ENE 10 13 1014.5 - 0.0 - - 10 - - - -
16/01:30pm 29.5 E 8 11 1014.5 - 0.0 - - 10 - - - -
16/01:00pm 29.3 ENE 9 12 1014.6 - 0.0 - - 10 - - - -
16/12:30pm 29.4 NE 9 11 1014.8 - 0.0 - - 10 - - - -
16/12:00pm 29.9 NE 7 11 1014.9 - 0.0 - - 10 - - - -
16/11:30am 28.8 SSE 4 8 1015.0 - 0.0 - - 10 - - - -
16/11:00am 28.8 ESE 7 9 1015.2 - 0.0 - - 10 - - - -
16/10:30am 27.6 ESE 8 11 1015.2 - 0.0 - Partly cloudy 10 - - - -
16/10:00am 27.5 SSE 8 11 1015.3 - 0.2 - - 10 - - - -
16/09:30am 26.9 SSE 10 13 1015.3 - 0.2 - - 10 - - - -
16/09:00am 26.3 SSE 9 11 1015.0 - 0.2 - - 10 - - - -
16/08:30am 26.5 SSE 6 9 1014.7 - 0.2 - - 10 - - - -

Other Formats:

Comma delimited format used in spreadsheet applications
http://www.bom.gov.au/fwo/IDN60701/IDN60701.94592.axf

JavaScript Object Notation format (JSON) in row-major order
http://www.bom.gov.au/fwo/IDN60701/IDN60701.94592.json